createdAt,value
2022-09-27T00:00:04.347Z,77.44
2022-09-27T00:00:16.778Z,77.88
2022-09-27T00:00:28.746Z,77.70
2022-09-27T00:00:43.056Z,77.72
2022-09-27T00:01:02.173Z,78.00
2022-09-27T00:01:15.458Z,78.00
2022-09-27T00:01:28.984Z,77.85
2022-09-27T00:01:41.114Z,78.14
2022-09-27T00:01:53.188Z,77.67
2022-09-27T00:02:05.362Z,78.20
2022-09-27T00:02:17.402Z,78.27
2022-09-27T00:02:29.500Z,77.68
2022-09-27T00:02:41.585Z,77.60
2022-09-27T00:02:53.945Z,77.85
2022-09-27T00:03:06.184Z,77.50
2022-09-27T00:03:18.220Z,77.19
2022-09-27T00:03:30.507Z,77.66
2022-09-27T00:03:42.941Z,77.33
2022-09-27T00:03:55.509Z,78.02
2022-09-27T00:04:07.507Z,77.88
2022-09-27T00:04:19.514Z,77.79
2022-09-27T00:04:31.473Z,77.65
2022-09-27T00:04:43.444Z,77.58
2022-09-27T00:04:55.840Z,77.45
2022-09-27T00:05:08.298Z,77.61
2022-09-27T00:05:20.363Z,77.87
2022-09-27T00:05:32.484Z,78.08
2022-09-27T00:05:44.475Z,78.04
2022-09-27T00:06:17.903Z,78.36
2022-09-27T00:06:31.822Z,78.00
2022-09-27T00:06:43.883Z,78.13
2022-09-27T00:06:55.883Z,77.84
2022-09-27T00:07:07.910Z,77.64
2022-09-27T00:07:19.904Z,77.76
2022-09-27T00:07:31.943Z,77.92
2022-09-27T00:07:45.302Z,77.91
2022-09-27T00:07:57.341Z,78.09
2022-09-27T00:08:09.341Z,78.09
2022-09-27T00:08:21.363Z,78.14
2022-09-27T00:08:34.870Z,77.76
2022-09-27T00:08:46.877Z,78.29
2022-09-27T00:08:59.940Z,77.89
2022-09-27T00:09:12.159Z,77.93
2022-09-27T00:09:24.163Z,78.45
2022-09-27T00:09:36.630Z,78.40
2022-09-27T00:09:48.632Z,78.22
2022-09-27T00:10:00.678Z,78.08
2022-09-27T00:10:13.074Z,78.32
2022-09-27T00:10:25.338Z,78.34
2022-09-27T00:10:37.363Z,78.52
2022-09-27T00:10:49.393Z,78.26
2022-09-27T00:11:02.895Z,77.73
2022-09-27T00:11:26.684Z,77.65
2022-09-27T00:11:42.703Z,78.02
2022-09-27T00:11:54.712Z,78.14
2022-09-27T00:12:06.709Z,78.13
2022-09-27T00:12:18.741Z,78.13
2022-09-27T00:12:30.733Z,78.43
2022-09-27T00:12:42.986Z,78.47
2022-09-27T00:12:55.578Z,78.49
2022-09-27T00:13:07.568Z,78.81
2022-09-27T00:13:19.551Z,78.63
2022-09-27T00:13:31.601Z,78.49
2022-09-27T00:13:43.889Z,78.57
2022-09-27T00:13:57.346Z,77.98
2022-09-27T00:14:12.670Z,78.06
2022-09-27T00:14:24.819Z,78.19
2022-09-27T00:14:36.827Z,77.97
2022-09-27T00:14:48.820Z,78.07
2022-09-27T00:15:02.113Z,78.53
2022-09-27T00:15:14.709Z,78.59
2022-09-27T00:15:27.077Z,78.27
2022-09-27T00:15:39.099Z,78.29
2022-09-27T00:16:00.734Z,78.14
2022-09-27T00:16:12.900Z,78.31
2022-09-27T00:16:28.088Z,78.66
2022-09-27T00:16:41.180Z,78.20
2022-09-27T00:16:53.189Z,77.71
2022-09-27T00:17:05.425Z,77.84
2022-09-27T00:17:17.476Z,77.63
2022-09-27T00:17:29.759Z,78.00
2022-09-27T00:17:41.765Z,78.13
2022-09-27T00:17:53.811Z,78.17
2022-09-27T00:18:06.006Z,78.02
2022-09-27T00:18:17.984Z,78.13
2022-09-27T00:18:31.156Z,78.15
2022-09-27T00:18:43.194Z,78.66
2022-09-27T00:19:03.427Z,78.08
2022-09-27T00:19:18.421Z,78.29
2022-09-27T00:19:30.384Z,78.16
2022-09-27T00:19:42.528Z,77.74
2022-09-27T00:19:56.239Z,77.90
2022-09-27T00:20:09.594Z,78.10
2022-09-27T00:20:22.136Z,77.94
2022-09-27T00:20:34.729Z,77.84
2022-09-27T00:20:46.737Z,77.60
2022-09-27T00:21:06.643Z,77.79
2022-09-27T00:21:18.817Z,77.61
2022-09-27T00:21:32.098Z,77.38
2022-09-27T00:21:46.409Z,77.22
2022-09-27T00:21:58.489Z,77.35
2022-09-27T00:22:10.485Z,77.49
2022-09-27T00:22:24.077Z,77.54
2022-09-27T00:22:36.350Z,77.92
2022-09-27T00:22:49.388Z,78.10
2022-09-27T00:23:01.377Z,77.78
2022-09-27T00:23:13.989Z,77.97
2022-09-27T00:23:26.135Z,78.26
2022-09-27T00:23:38.668Z,78.48
2022-09-27T00:23:50.685Z,78.39
2022-09-27T00:24:03.346Z,78.33
2022-09-27T00:24:20.989Z,77.73
2022-09-27T00:24:33.078Z,77.63
2022-09-27T00:24:45.086Z,77.72
2022-09-27T00:24:57.154Z,77.47
2022-09-27T00:25:09.206Z,76.98
2022-09-27T00:25:22.126Z,77.16
2022-09-27T00:25:34.267Z,77.22
2022-09-27T00:25:59.427Z,77.17
2022-09-27T00:26:13.193Z,76.97
2022-09-27T00:26:25.897Z,77.21
2022-09-27T00:26:37.876Z,77.02
2022-09-27T00:26:51.224Z,77.38
2022-09-27T00:27:03.241Z,77.62
2022-09-27T00:27:15.406Z,77.43
2022-09-27T00:27:27.896Z,77.62
2022-09-27T00:27:39.934Z,77.28
2022-09-27T00:27:52.126Z,77.88
2022-09-27T00:28:04.122Z,77.70
2022-09-27T00:28:16.127Z,77.40
2022-09-27T00:28:28.754Z,77.59
2022-09-27T00:28:41.164Z,77.68
2022-09-27T00:28:53.560Z,77.90
2022-09-27T00:29:05.693Z,78.12
2022-09-27T00:29:18.846Z,78.13
2022-09-27T00:29:30.964Z,77.98
2022-09-27T00:29:43.082Z,77.78
2022-09-27T00:29:55.215Z,77.57
2022-09-27T00:30:07.621Z,77.65
2022-09-27T00:30:19.643Z,77.79
2022-09-27T00:30:31.702Z,77.69
2022-09-27T00:30:43.865Z,77.66
2022-09-27T00:30:56.237Z,77.55
2022-09-27T00:31:20.177Z,77.78
2022-09-27T00:31:46.603Z,77.84
2022-09-27T00:31:58.528Z,77.53
2022-09-27T00:32:10.629Z,77.72
2022-09-27T00:32:22.559Z,77.40
2022-09-27T00:32:34.481Z,77.29
2022-09-27T00:32:46.506Z,76.87
2022-09-27T00:32:58.421Z,76.93
2022-09-27T00:33:10.405Z,77.26
2022-09-27T00:33:22.444Z,77.40
2022-09-27T00:33:34.389Z,77.25
2022-09-27T00:33:48.205Z,77.56
2022-09-27T00:34:02.124Z,78.05
2022-09-27T00:34:25.396Z,77.95
2022-09-27T00:34:37.542Z,77.71
2022-09-27T00:34:49.512Z,78.09
2022-09-27T00:35:01.611Z,77.89
2022-09-27T00:35:13.696Z,78.29
2022-09-27T00:35:25.778Z,78.23
2022-09-27T00:35:37.770Z,78.32
2022-09-27T00:35:49.755Z,78.27
2022-09-27T00:36:10.603Z,77.90
2022-09-27T00:36:24.040Z,77.58
2022-09-27T00:36:36.138Z,77.57
2022-09-27T00:36:49.225Z,77.30
2022-09-27T00:37:01.202Z,77.53
2022-09-27T00:37:13.181Z,77.85
2022-09-27T00:37:25.948Z,77.49
2022-09-27T00:37:37.892Z,77.62
2022-09-27T00:37:50.061Z,77.72
2022-09-27T00:38:02.254Z,78.06
2022-09-27T00:38:15.075Z,77.87
2022-09-27T00:38:27.006Z,78.01
2022-09-27T00:38:40.598Z,78.36
2022-09-27T00:38:53.278Z,78.41
2022-09-27T00:39:05.200Z,78.15
2022-09-27T00:39:17.651Z,78.32
2022-09-27T00:39:29.851Z,78.84
2022-09-27T00:39:42.270Z,78.76
2022-09-27T00:39:54.199Z,78.92
2022-09-27T00:40:06.634Z,79.08
2022-09-27T00:40:24.051Z,79.27
2022-09-27T00:40:36.150Z,78.91
2022-09-27T00:40:48.917Z,78.85
2022-09-27T00:41:01.330Z,78.94
2022-09-27T00:41:24.925Z,79.07
2022-09-27T00:41:37.707Z,78.77
2022-09-27T00:41:49.797Z,78.85
2022-09-27T00:42:01.789Z,78.65
2022-09-27T00:42:14.961Z,78.72
2022-09-27T00:42:26.950Z,78.78
2022-09-27T00:42:38.882Z,79.00
2022-09-27T00:42:50.821Z,78.91
2022-09-27T00:43:03.306Z,79.26
2022-09-27T00:43:21.325Z,79.55
2022-09-27T00:43:53.523Z,79.52
2022-09-27T00:44:25.515Z,79.11
2022-09-27T00:44:40.409Z,79.15
2022-09-27T00:45:07.012Z,78.60
2022-09-27T00:45:19.293Z,78.80
2022-09-27T00:45:50.736Z,79.10
2022-09-27T00:46:04.153Z,78.97
2022-09-27T00:46:28.252Z,78.99
2022-09-27T00:46:45.428Z,78.95
2022-09-27T00:47:14.941Z,78.99
2022-09-27T00:47:45.790Z,78.94
2022-09-27T00:48:05.831Z,79.12
2022-09-27T00:48:21.438Z,79.10
2022-09-27T00:48:39.466Z,78.86
2022-09-27T00:49:03.975Z,78.33
2022-09-27T00:49:37.596Z,78.63
2022-09-27T00:49:57.438Z,78.10
2022-09-27T00:50:37.387Z,77.80
2022-09-27T00:50:55.336Z,77.76
2022-09-27T00:51:09.675Z,77.45
2022-09-27T00:51:25.444Z,77.70
2022-09-27T00:51:40.369Z,78.25
2022-09-27T00:51:58.136Z,77.78
2022-09-27T00:52:38.436Z,78.25
2022-09-27T00:53:16.497Z,78.48
2022-09-27T00:53:40.917Z,78.75
2022-09-27T00:53:57.475Z,78.57
2022-09-27T00:54:13.073Z,78.76
2022-09-27T00:54:28.695Z,78.57
2022-09-27T00:54:44.367Z,78.99
2022-09-27T00:55:09.695Z,79.12
2022-09-27T00:55:31.429Z,79.36
2022-09-27T00:55:49.426Z,79.96
2022-09-27T00:56:05.265Z,79.69
2022-09-27T00:56:24.706Z,79.67
2022-09-27T00:56:41.656Z,79.28
2022-09-27T00:56:54.504Z,79.51
2022-09-27T00:57:06.845Z,79.29
2022-09-27T00:57:21.162Z,79.56
2022-09-27T00:57:33.535Z,79.53
2022-09-27T00:57:47.663Z,79.13
2022-09-27T00:58:04.703Z,79.36
2022-09-27T00:58:28.014Z,79.42
2022-09-27T00:58:46.539Z,79.32
2022-09-27T00:59:09.604Z,79.36
2022-09-27T00:59:30.972Z,78.96
2022-09-27T00:59:49.886Z,79.23
2022-09-27T01:00:07.184Z,79.50
2022-09-27T01:00:19.569Z,79.09
2022-09-27T01:00:31.857Z,79.54
2022-09-27T01:00:48.152Z,79.42
2022-09-27T01:01:07.846Z,79.58
2022-09-27T01:01:20.119Z,79.31
2022-09-27T01:01:33.946Z,79.56
2022-09-27T01:01:55.200Z,79.33
2022-09-27T01:02:13.171Z,79.10
2022-09-27T01:02:27.902Z,78.90
2022-09-27T01:02:44.148Z,79.23
2022-09-27T01:03:36.794Z,79.46
2022-09-27T01:04:09.073Z,79.40
2022-09-27T01:04:28.109Z,79.54
2022-09-27T01:04:44.009Z,79.75
2022-09-27T01:04:57.203Z,79.91
2022-09-27T01:05:12.480Z,80.10
2022-09-27T01:05:29.342Z,80.38
2022-09-27T01:05:42.742Z,79.89
2022-09-27T01:05:55.540Z,80.55
2022-09-27T01:06:09.082Z,80.16
2022-09-27T01:06:24.030Z,80.36
2022-09-27T01:06:37.549Z,80.40
2022-09-27T01:06:49.780Z,80.24
2022-09-27T01:07:02.052Z,80.27
2022-09-27T01:07:14.671Z,80.38
2022-09-27T01:07:29.111Z,80.33
2022-09-27T01:07:41.478Z,80.41
2022-09-27T01:07:56.793Z,80.54
2022-09-27T01:08:10.139Z,80.63
2022-09-27T01:08:22.352Z,80.81
2022-09-27T01:08:35.549Z,80.83
2022-09-27T01:08:47.947Z,80.74
2022-09-27T01:09:02.521Z,80.61
2022-09-27T01:09:14.946Z,80.31
2022-09-27T01:09:27.709Z,80.30
2022-09-27T01:09:40.562Z,80.32
2022-09-27T01:09:52.812Z,80.43
2022-09-27T01:10:06.380Z,80.16
2022-09-27T01:10:19.859Z,80.41
2022-09-27T01:10:46.409Z,80.07
2022-09-27T01:11:38.098Z,79.89
2022-09-27T01:12:11.809Z,80.24
2022-09-27T01:12:36.641Z,80.62
2022-09-27T01:13:06.672Z,80.54
2022-09-27T01:13:29.646Z,80.64
2022-09-27T01:14:03.909Z,79.97
2022-09-27T01:14:30.360Z,80.33
2022-09-27T01:14:59.867Z,80.85
2022-09-27T01:15:33.305Z,81.20
2022-09-27T01:15:51.270Z,80.83
2022-09-27T01:16:21.148Z,81.06
2022-09-27T01:16:52.587Z,81.09
2022-09-27T01:17:43.237Z,81.71
2022-09-27T01:18:18.934Z,81.71
2022-09-27T01:18:42.914Z,82.22
2022-09-27T01:19:09.886Z,83.07
2022-09-27T01:19:39.757Z,83.12
2022-09-27T01:20:05.283Z,83.70
2022-09-27T01:20:31.335Z,83.82
2022-09-27T01:21:13.355Z,83.73
2022-09-27T01:21:46.972Z,83.95
2022-09-27T01:22:15.109Z,85.01
2022-09-27T01:22:48.607Z,84.62
2022-09-27T01:23:37.913Z,85.08
2022-09-27T01:24:14.215Z,84.77
2022-09-27T01:24:50.242Z,84.91
2022-09-27T01:25:17.373Z,84.64
2022-09-27T01:26:10.982Z,85.13
2022-09-27T01:26:44.993Z,84.57
2022-09-27T01:27:31.893Z,84.41
2022-09-27T01:28:12.505Z,84.34
2022-09-27T01:28:42.890Z,84.18
2022-09-27T01:29:07.192Z,84.16
2022-09-27T01:29:43.182Z,84.47
2022-09-27T01:30:16.241Z,84.03
2022-09-27T01:30:39.663Z,84.02
2022-09-27T01:31:13.419Z,84.17
2022-09-27T01:31:36.763Z,84.45
2022-09-27T01:32:30.441Z,84.70
2022-09-27T01:32:46.506Z,84.35
2022-09-27T01:33:10.689Z,83.77
2022-09-27T01:33:28.884Z,84.25
2022-09-27T01:33:51.351Z,84.80
2022-09-27T01:34:33.681Z,84.63
2022-09-27T01:35:27.812Z,84.81
2022-09-27T01:36:08.374Z,84.84
2022-09-27T01:36:41.941Z,84.61
2022-09-27T01:36:58.177Z,85.11
2022-09-27T01:37:22.380Z,84.83
2022-09-27T01:37:46.019Z,84.92
2022-09-27T01:38:20.809Z,84.83
2022-09-27T01:39:00.160Z,84.49
2022-09-27T01:39:28.749Z,84.56
2022-09-27T01:40:02.335Z,84.15
2022-09-27T01:40:48.671Z,84.05
2022-09-27T01:41:07.001Z,84.81
2022-09-27T01:41:44.510Z,84.73
2022-09-27T01:42:25.139Z,84.21
2022-09-27T01:43:18.297Z,84.10
2022-09-27T01:43:39.387Z,83.89
2022-09-27T01:44:06.181Z,84.00
2022-09-27T01:44:25.309Z,84.48
2022-09-27T01:44:40.914Z,84.02
2022-09-27T01:45:14.648Z,84.70
2022-09-27T01:45:38.996Z,84.19
2022-09-27T01:46:10.854Z,84.46
2022-09-27T01:46:41.441Z,84.81
2022-09-27T01:47:01.654Z,84.58
2022-09-27T01:47:24.284Z,84.35
2022-09-27T01:47:46.668Z,84.06
2022-09-27T01:48:09.088Z,84.07
2022-09-27T01:48:25.534Z,84.31
2022-09-27T01:48:49.245Z,84.12
2022-09-27T01:49:09.568Z,84.06
2022-09-27T01:49:52.254Z,84.27
2022-09-27T01:50:18.016Z,84.56
2022-09-27T01:50:41.827Z,84.56
2022-09-27T01:51:09.573Z,84.22
2022-09-27T01:51:33.955Z,84.03
2022-09-27T01:51:59.024Z,84.21
2022-09-27T01:52:16.064Z,84.08
2022-09-27T01:52:37.672Z,84.24
2022-09-27T01:53:00.725Z,84.14
2022-09-27T01:53:20.984Z,83.30
2022-09-27T01:53:38.653Z,83.68
2022-09-27T01:53:53.123Z,83.34
2022-09-27T01:54:06.963Z,83.40
2022-09-27T01:54:28.976Z,83.71
2022-09-27T01:54:45.624Z,83.60
2022-09-27T01:55:01.692Z,84.05
2022-09-27T01:55:25.569Z,83.43
2022-09-27T01:55:39.460Z,83.83
2022-09-27T01:55:57.393Z,83.92
2022-09-27T01:56:22.383Z,84.04
2022-09-27T01:56:43.594Z,84.03
2022-09-27T01:57:02.076Z,84.65
2022-09-27T01:57:20.138Z,84.58
2022-09-27T01:57:38.992Z,84.71
2022-09-27T01:57:59.700Z,85.06
2022-09-27T01:58:33.983Z,84.80
2022-09-27T01:59:20.804Z,85.14
2022-09-27T01:59:44.571Z,85.73
2022-09-27T02:00:10.403Z,85.83
2022-09-27T02:00:22.592Z,84.90
2022-09-27T02:00:38.146Z,85.64
2022-09-27T02:00:53.821Z,85.37
2022-09-27T02:01:09.279Z,84.96
2022-09-27T02:01:23.603Z,84.97
2022-09-27T02:01:39.246Z,85.12
2022-09-27T02:01:53.214Z,85.18
2022-09-27T02:02:09.974Z,85.76
2022-09-27T02:02:35.843Z,85.88
2022-09-27T02:03:13.293Z,84.99
2022-09-27T02:03:42.358Z,85.30
2022-09-27T02:03:59.054Z,85.73
2022-09-27T02:04:16.961Z,85.79
2022-09-27T02:04:33.789Z,86.00
2022-09-27T02:04:50.269Z,86.16
2022-09-27T02:05:16.189Z,86.69
2022-09-27T02:05:38.992Z,86.72
2022-09-27T02:06:03.391Z,86.60
2022-09-27T02:06:44.386Z,87.87
2022-09-27T02:07:07.209Z,87.97
2022-09-27T02:07:26.629Z,88.24
2022-09-27T02:07:48.743Z,87.67
2022-09-27T02:08:28.626Z,87.52
2022-09-27T02:09:02.915Z,87.15
2022-09-27T02:09:32.419Z,87.42
2022-09-27T02:10:09.160Z,87.03
2022-09-27T02:10:29.029Z,87.41
2022-09-27T02:10:45.018Z,87.47
2022-09-27T02:11:02.507Z,87.42
2022-09-27T02:11:15.208Z,87.67
2022-09-27T02:11:40.387Z,87.48
2022-09-27T02:12:01.578Z,87.25
2022-09-27T02:12:20.114Z,87.37
2022-09-27T02:12:54.249Z,87.92
2022-09-27T02:13:20.031Z,88.27
2022-09-27T02:14:00.977Z,88.34
2022-09-27T02:14:21.425Z,88.20
2022-09-27T02:14:45.705Z,88.91
2022-09-27T02:15:05.336Z,88.91
2022-09-27T02:15:22.988Z,89.46
2022-09-27T02:16:07.478Z,89.12
2022-09-27T02:16:38.916Z,88.83
2022-09-27T02:17:04.346Z,88.77
2022-09-27T02:17:29.373Z,88.83
2022-09-27T02:17:54.162Z,89.17
2022-09-27T02:18:27.465Z,88.85
2022-09-27T02:19:37.842Z,88.01
2022-09-27T02:20:14.789Z,88.12
2022-09-27T02:20:39.220Z,88.46
2022-09-27T02:20:55.796Z,88.12
2022-09-27T02:21:15.054Z,88.29
2022-09-27T02:21:41.464Z,88.20
2022-09-27T02:22:05.345Z,87.82
2022-09-27T02:22:22.234Z,88.09
2022-09-27T02:22:47.554Z,87.64
2022-09-27T02:23:22.983Z,87.62
2022-09-27T02:24:05.085Z,87.43
2022-09-27T02:24:25.719Z,87.08
2022-09-27T02:24:43.583Z,86.98
2022-09-27T02:25:13.702Z,87.48
2022-09-27T02:25:54.790Z,87.77
2022-09-27T02:26:21.688Z,87.65
2022-09-27T02:26:42.821Z,87.44
2022-09-27T02:27:10.950Z,86.74
2022-09-27T02:27:30.882Z,86.71
2022-09-27T02:27:57.530Z,86.33
2022-09-27T02:28:33.934Z,86.29
2022-09-27T02:29:08.011Z,86.66
2022-09-27T02:29:33.320Z,86.70
2022-09-27T02:29:53.313Z,86.94
2022-09-27T02:30:14.772Z,86.97
2022-09-27T02:30:27.370Z,86.90
2022-09-27T02:30:39.717Z,87.37
2022-09-27T02:30:52.570Z,87.09
2022-09-27T02:31:11.497Z,86.93
2022-09-27T02:31:31.285Z,86.75
2022-09-27T02:31:46.578Z,86.55
2022-09-27T02:31:58.714Z,86.67
2022-09-27T02:32:22.879Z,86.42
2022-09-27T02:32:44.981Z,87.26
2022-09-27T02:33:01.362Z,87.37
2022-09-27T02:33:13.947Z,87.34
2022-09-27T02:33:36.491Z,87.78
2022-09-27T02:33:58.218Z,87.15
2022-09-27T02:34:31.420Z,87.64
2022-09-27T02:34:45.113Z,87.13
2022-09-27T02:35:04.613Z,87.45
2022-09-27T02:35:25.456Z,87.32
2022-09-27T02:35:40.696Z,87.65
2022-09-27T02:36:12.059Z,87.70
2022-09-27T02:36:28.446Z,86.76
2022-09-27T02:36:43.899Z,86.68
2022-09-27T02:36:56.366Z,86.80
2022-09-27T02:37:08.718Z,86.89
2022-09-27T02:37:20.843Z,86.84
2022-09-27T02:37:48.719Z,86.75
2022-09-27T02:38:03.645Z,86.81
2022-09-27T02:38:16.268Z,86.66
2022-09-27T02:38:33.228Z,86.72
2022-09-27T02:38:49.451Z,86.51
2022-09-27T02:39:01.846Z,86.49
2022-09-27T02:39:40.977Z,87.11
2022-09-27T02:39:54.187Z,86.86
2022-09-27T02:40:07.279Z,86.69
2022-09-27T02:40:20.252Z,86.44
2022-09-27T02:41:14.618Z,87.09
2022-09-27T02:41:32.896Z,86.97
2022-09-27T02:41:50.134Z,86.92
2022-09-27T02:42:03.204Z,87.42
2022-09-27T02:42:16.493Z,87.47
2022-09-27T02:42:34.936Z,87.91
2022-09-27T02:42:49.287Z,88.31
2022-09-27T02:43:05.880Z,88.35
2022-09-27T02:43:24.394Z,88.29
2022-09-27T02:43:36.597Z,88.50
2022-09-27T02:44:02.760Z,88.41
2022-09-27T02:44:33.174Z,88.18
2022-09-27T02:44:45.924Z,88.18
2022-09-27T02:44:58.334Z,88.19
2022-09-27T02:45:18.795Z,87.67
2022-09-27T02:45:44.644Z,87.59
2022-09-27T02:46:26.742Z,87.32
2022-09-27T02:47:15.156Z,86.82
2022-09-27T02:48:02.004Z,86.63
2022-09-27T02:48:22.152Z,86.40
2022-09-27T02:49:28.123Z,86.92
2022-09-27T02:50:08.471Z,86.77
2022-09-27T02:50:53.853Z,86.95
2022-09-27T02:51:06.003Z,86.43
2022-09-27T02:51:39.250Z,86.36
2022-09-27T02:52:12.671Z,86.14
2022-09-27T02:52:37.544Z,86.43
2022-09-27T02:53:11.729Z,86.57
2022-09-27T02:53:42.179Z,86.17
2022-09-27T02:54:22.622Z,86.05
2022-09-27T02:54:37.379Z,86.17
2022-09-27T02:55:40.880Z,86.77
2022-09-27T02:56:49.001Z,87.00
2022-09-27T02:57:27.901Z,86.95
2022-09-27T02:58:09.377Z,88.24
2022-09-27T02:58:50.696Z,88.16
2022-09-27T02:59:37.669Z,88.50
2022-09-27T03:00:08.017Z,88.44
2022-09-27T03:00:24.907Z,88.21
2022-09-27T03:01:41.569Z,88.19
2022-09-27T03:02:26.377Z,88.48
2022-09-27T03:02:56.754Z,88.08
2022-09-27T03:03:25.077Z,88.13
2022-09-27T03:03:52.877Z,89.04
2022-09-27T03:04:17.409Z,88.50
2022-09-27T03:05:00.916Z,88.31
2022-09-27T03:05:45.628Z,88.33
2022-09-27T03:06:41.267Z,89.28
2022-09-27T03:06:57.715Z,89.40
2022-09-27T03:07:12.736Z,89.59
2022-09-27T03:07:28.843Z,89.46
2022-09-27T03:08:01.214Z,89.82
2022-09-27T03:08:16.646Z,89.90
2022-09-27T03:08:47.727Z,90.10
2022-09-27T03:09:03.723Z,90.08
2022-09-27T03:09:27.256Z,90.17
2022-09-27T03:09:48.315Z,90.23
2022-09-27T03:10:45.163Z,90.04
2022-09-27T03:11:24.204Z,90.10
2022-09-27T03:11:43.923Z,90.08
2022-09-27T03:11:56.034Z,90.02
2022-09-27T03:12:32.163Z,90.00
2022-09-27T03:12:50.643Z,89.78
2022-09-27T03:13:05.106Z,89.81
2022-09-27T03:14:09.516Z,89.51
2022-09-27T03:14:57.383Z,89.67
2022-09-27T03:15:32.995Z,89.68
2022-09-27T03:15:52.512Z,89.50
2022-09-27T03:16:17.020Z,89.94
2022-09-27T03:16:30.342Z,90.35
2022-09-27T03:16:45.154Z,90.58
2022-09-27T03:16:58.229Z,90.10
2022-09-27T03:17:11.555Z,90.14
2022-09-27T03:17:27.192Z,89.95
2022-09-27T03:18:18.182Z,90.55
2022-09-27T03:18:42.119Z,90.34
2022-09-27T03:18:57.233Z,90.23
2022-09-27T03:19:10.261Z,90.59
2022-09-27T03:20:17.886Z,90.02
2022-09-27T03:20:32.642Z,89.75
2022-09-27T03:20:54.732Z,89.87
2022-09-27T03:21:09.761Z,89.57
2022-09-27T03:21:26.294Z,89.61
2022-09-27T03:21:51.032Z,89.47
2022-09-27T03:22:39.099Z,89.72
2022-09-27T03:22:56.462Z,89.20
2022-09-27T03:23:21.380Z,89.28
2022-09-27T03:23:46.679Z,89.46
2022-09-27T03:24:05.609Z,89.95
2022-09-27T03:24:24.080Z,90.03
2022-09-27T03:24:58.318Z,90.24
2022-09-27T03:25:59.029Z,90.61
2022-09-27T03:26:50.179Z,90.88
2022-09-27T03:27:34.438Z,91.14
2022-09-27T03:27:57.932Z,91.15
2022-09-27T03:28:36.381Z,91.40
2022-09-27T03:29:40.325Z,91.33
2022-09-27T03:30:10.343Z,91.08
2022-09-27T03:30:24.316Z,91.18
2022-09-27T03:30:47.484Z,91.55
2022-09-27T03:31:35.061Z,91.59
2022-09-27T03:32:00.116Z,91.38
2022-09-27T03:39:41.540Z,92.22
2022-09-27T03:39:54.215Z,92.44
2022-09-27T03:40:08.623Z,92.40
2022-09-27T03:40:20.611Z,92.21
2022-09-27T03:40:33.157Z,91.83
2022-09-27T03:40:45.313Z,92.32
2022-09-27T03:40:57.450Z,92.13
2022-09-27T03:41:09.473Z,92.19
2022-09-27T03:41:21.403Z,92.05
2022-09-27T03:41:33.328Z,92.33
2022-09-27T03:41:45.294Z,92.72
2022-09-27T03:41:57.568Z,92.70
2022-09-27T03:42:09.555Z,92.68
2022-09-27T03:42:21.466Z,92.27
2022-09-27T03:42:33.695Z,92.16
2022-09-27T03:42:49.584Z,92.50
2022-09-27T03:43:02.398Z,92.47
2022-09-27T03:43:14.361Z,92.30
2022-09-27T03:43:26.337Z,92.06
2022-09-27T03:43:38.715Z,91.88
2022-09-27T03:43:53.600Z,92.00
2022-09-27T03:44:05.551Z,91.96
2022-09-27T03:44:17.581Z,91.93
2022-09-27T03:44:29.564Z,92.05
2022-09-27T03:44:41.511Z,92.27
2022-09-27T03:44:53.522Z,92.11
2022-09-27T03:45:06.126Z,91.84
2022-09-27T03:45:18.619Z,92.09
2022-09-27T03:45:30.553Z,92.08
2022-09-27T03:45:45.252Z,91.64
2022-09-27T03:45:57.347Z,91.73
2022-09-27T03:46:09.364Z,91.61
2022-09-27T03:46:22.921Z,91.38
2022-09-27T03:46:34.964Z,91.79
2022-09-27T03:46:46.988Z,91.82
2022-09-27T03:46:59.349Z,91.59
2022-09-27T03:47:11.339Z,91.85
2022-09-27T03:47:23.333Z,91.90
2022-09-27T03:47:35.270Z,92.14
2022-09-27T03:47:48.075Z,92.05
2022-09-27T03:48:00.120Z,92.03
2022-09-27T03:48:12.176Z,92.01
2022-09-27T03:48:27.922Z,92.36
2022-09-27T03:48:41.931Z,92.44
2022-09-27T03:48:53.938Z,92.44
2022-09-27T03:49:05.888Z,92.74
2022-09-27T03:49:17.871Z,92.49
2022-09-27T03:49:29.908Z,92.30
2022-09-27T03:49:41.895Z,92.78
2022-09-27T03:49:53.876Z,92.69
2022-09-27T03:50:06.479Z,92.40
2022-09-27T03:50:18.407Z,92.36
2022-09-27T03:50:30.374Z,92.38
2022-09-27T03:50:42.644Z,92.94
2022-09-27T03:50:54.568Z,92.45
2022-09-27T03:51:06.596Z,92.55
2022-09-27T03:51:18.524Z,92.63
2022-09-27T03:51:30.452Z,92.16
2022-09-27T03:51:42.546Z,92.59
2022-09-27T03:51:54.545Z,93.05
2022-09-27T03:52:06.512Z,92.76
2022-09-27T03:52:18.892Z,92.78
2022-09-27T03:52:30.865Z,92.88
2022-09-27T03:52:43.862Z,92.99
2022-09-27T03:52:55.849Z,92.78
2022-09-27T03:53:08.043Z,93.27
2022-09-27T03:53:20.636Z,93.09
2022-09-27T03:53:32.561Z,92.74
2022-09-27T03:53:44.505Z,92.99
2022-09-27T03:53:56.819Z,93.02
2022-09-27T03:54:09.027Z,93.06
2022-09-27T03:54:21.026Z,93.07
2022-09-27T03:54:33.119Z,92.87
2022-09-27T03:54:45.362Z,92.56
2022-09-27T03:55:01.800Z,92.77
2022-09-27T03:55:14.465Z,92.70
2022-09-27T03:55:26.410Z,92.35
2022-09-27T03:55:38.444Z,92.64
2022-09-27T03:55:50.397Z,92.66
2022-09-27T03:56:02.352Z,92.75
2022-09-27T03:56:14.274Z,92.79
2022-09-27T03:56:26.244Z,92.50
2022-09-27T03:56:38.247Z,93.04
2022-09-27T03:56:50.201Z,92.65
2022-09-27T03:57:02.145Z,92.64
2022-09-27T03:57:14.324Z,92.69
2022-09-27T03:57:26.276Z,92.96
2022-09-27T03:57:38.675Z,92.74
2022-09-27T03:57:50.616Z,92.77
2022-09-27T03:58:02.650Z,92.74
2022-09-27T03:58:14.893Z,92.84
2022-09-27T03:58:26.840Z,92.92
2022-09-27T03:58:38.889Z,92.66
2022-09-27T03:58:50.878Z,93.06
2022-09-27T03:59:03.601Z,93.11
2022-09-27T03:59:15.729Z,93.13
2022-09-27T03:59:27.766Z,93.01
2022-09-27T03:59:39.741Z,93.30
2022-09-27T03:59:51.751Z,92.96
2022-09-27T04:00:05.706Z,93.39
2022-09-27T04:00:17.967Z,93.18
2022-09-27T04:00:32.229Z,93.18
2022-09-27T04:00:46.556Z,93.59
2022-09-27T04:00:58.515Z,93.95
2022-09-27T04:01:10.861Z,93.77
2022-09-27T04:01:22.922Z,93.38
2022-09-27T04:01:36.637Z,93.37
2022-09-27T04:01:48.626Z,93.55
2022-09-27T04:02:00.703Z,93.63
2022-09-27T04:02:12.742Z,93.21
2022-09-27T04:02:24.851Z,93.51
2022-09-27T04:02:36.845Z,93.29
2022-09-27T04:02:48.904Z,93.26
2022-09-27T04:03:01.006Z,93.37
2022-09-27T04:03:13.602Z,93.40
2022-09-27T04:03:26.898Z,93.47
2022-09-27T04:03:38.872Z,93.52
2022-09-27T04:03:50.803Z,93.20
2022-09-27T04:04:06.458Z,93.09
2022-09-27T04:04:20.841Z,93.03
2022-09-27T04:04:32.830Z,92.99
2022-09-27T04:04:45.160Z,93.09
2022-09-27T04:04:57.136Z,93.56
2022-09-27T04:05:09.499Z,93.28
2022-09-27T04:05:21.452Z,93.66
2022-09-27T04:05:33.392Z,93.79
2022-09-27T04:05:45.743Z,93.31
2022-09-27T04:06:00.311Z,93.68
2022-09-27T04:06:12.247Z,93.53
2022-09-27T04:06:24.305Z,93.40
2022-09-27T04:06:36.239Z,93.08
2022-09-27T04:06:49.084Z,92.93
2022-09-27T04:07:01.003Z,93.38
2022-09-27T04:07:13.287Z,92.86
2022-09-27T04:07:25.293Z,93.38
2022-09-27T04:07:37.748Z,93.26
2022-09-27T04:07:50.101Z,93.82
2022-09-27T04:08:02.268Z,93.25
2022-09-27T04:08:14.229Z,93.44
2022-09-27T04:08:26.173Z,93.32
2022-09-27T04:08:38.143Z,93.19
2022-09-27T04:08:50.682Z,93.41
2022-09-27T04:09:03.258Z,92.96
2022-09-27T04:09:15.394Z,93.34
2022-09-27T04:09:27.453Z,93.50
2022-09-27T04:09:44.407Z,93.48
2022-09-27T04:09:56.839Z,93.57
2022-09-27T04:10:10.253Z,93.55
2022-09-27T04:10:22.247Z,93.24
2022-09-27T04:10:34.259Z,93.62
2022-09-27T04:10:46.247Z,93.28
2022-09-27T04:10:58.376Z,92.98
2022-09-27T04:11:10.715Z,93.12
2022-09-27T04:11:23.711Z,93.34
2022-09-27T04:11:35.687Z,93.24
2022-09-27T04:11:49.022Z,93.20
2022-09-27T04:12:01.277Z,93.64
2022-09-27T04:12:13.705Z,93.74
2022-09-27T04:12:25.658Z,93.83
2022-09-27T04:12:40.734Z,93.71
2022-09-27T04:12:52.680Z,93.82
2022-09-27T04:13:05.260Z,93.90
2022-09-27T04:13:17.310Z,93.80
2022-09-27T04:13:29.889Z,93.47
2022-09-27T04:13:41.855Z,93.59
2022-09-27T04:13:53.879Z,93.63
2022-09-27T04:14:05.901Z,93.49
2022-09-27T04:14:17.826Z,93.55
2022-09-27T04:14:29.888Z,93.70
2022-09-27T04:14:41.897Z,93.60
2022-09-27T04:14:54.694Z,93.34
2022-09-27T04:15:08.294Z,93.72
2022-09-27T04:15:20.816Z,93.29
2022-09-27T04:15:32.798Z,93.58
2022-09-27T04:15:47.462Z,93.31
2022-09-27T04:16:03.904Z,93.38
2022-09-27T04:16:16.544Z,93.13